sensor_id;sensor_type;location;lat;lon;timestamp;P1;durP1;ratioP1;P2;durP2;ratioP2
10343;SDS011;5217;43.960;10.954;2023-04-03T00:01:31;2.47;;;1.80;;
10343;SDS011;5217;43.960;10.954;2023-04-03T00:04:00;3.27;;;2.13;;
10343;SDS011;5217;43.960;10.954;2023-04-03T00:06:30;3.30;;;2.00;;
10343;SDS011;5217;43.960;10.954;2023-04-03T00:08:58;3.33;;;2.07;;
10343;SDS011;5217;43.960;10.954;2023-04-03T00:11:27;3.33;;;2.17;;
10343;SDS011;5217;43.960;10.954;2023-04-03T00:13:55;2.57;;;2.00;;
10343;SDS011;5217;43.960;10.954;2023-04-03T00:16:23;2.80;;;2.00;;
10343;SDS011;5217;43.960;10.954;2023-04-03T00:18:51;3.03;;;2.00;;
10343;SDS011;5217;43.960;10.954;2023-04-03T00:21:20;3.43;;;1.83;;
10343;SDS011;5217;43.960;10.954;2023-04-03T00:23:49;3.80;;;2.20;;
10343;SDS011;5217;43.960;10.954;2023-04-03T00:26:18;2.00;;;1.80;;
10343;SDS011;5217;43.960;10.954;2023-04-03T00:28:47;2.90;;;1.70;;
10343;SDS011;5217;43.960;10.954;2023-04-03T00:31:15;2.83;;;1.97;;
10343;SDS011;5217;43.960;10.954;2023-04-03T00:33:44;2.40;;;1.77;;
10343;SDS011;5217;43.960;10.954;2023-04-03T00:36:12;3.77;;;2.00;;
10343;SDS011;5217;43.960;10.954;2023-04-03T00:38:41;2.57;;;2.00;;
10343;SDS011;5217;43.960;10.954;2023-04-03T00:41:10;2.87;;;1.97;;
10343;SDS011;5217;43.960;10.954;2023-04-03T00:43:39;3.33;;;1.93;;
10343;SDS011;5217;43.960;10.954;2023-04-03T00:46:07;3.90;;;1.93;;
10343;SDS011;5217;43.960;10.954;2023-04-03T00:48:36;2.83;;;2.00;;
10343;SDS011;5217;43.960;10.954;2023-04-03T00:51:08;2.40;;;2.00;;
10343;SDS011;5217;43.960;10.954;2023-04-03T00:53:42;2.30;;;1.67;;
10343;SDS011;5217;43.960;10.954;2023-04-03T00:56:15;3.00;;;1.80;;
10343;SDS011;5217;43.960;10.954;2023-04-03T00:58:46;2.37;;;1.70;;
10343;SDS011;5217;43.960;10.954;2023-04-03T01:01:19;1.97;;;1.40;;
10343;SDS011;5217;43.960;10.954;2023-04-03T01:03:50;2.60;;;1.80;;
10343;SDS011;5217;43.960;10.954;2023-04-03T01:06:20;3.13;;;1.87;;
10343;SDS011;5217;43.960;10.954;2023-04-03T01:08:52;2.87;;;1.80;;
10343;SDS011;5217;43.960;10.954;2023-04-03T01:11:23;2.03;;;1.60;;
10343;SDS011;5217;43.960;10.954;2023-04-03T01:13:52;3.40;;;1.70;;
10343;SDS011;5217;43.960;10.954;2023-04-03T01:16:20;2.67;;;1.60;;
10343;SDS011;5217;43.960;10.954;2023-04-03T01:18:49;3.30;;;1.80;;
10343;SDS011;5217;43.960;10.954;2023-04-03T01:21:37;1.67;;;1.50;;
10343;SDS011;5217;43.960;10.954;2023-04-03T01:24:34;3.40;;;1.97;;
10343;SDS011;5217;43.960;10.954;2023-04-03T01:27:07;2.17;;;1.70;;
10343;SDS011;5217;43.960;10.954;2023-04-03T01:29:38;1.97;;;1.70;;
10343;SDS011;5217;43.960;10.954;2023-04-03T01:32:09;2.43;;;1.53;;
10343;SDS011;5217;43.960;10.954;2023-04-03T01:34:38;2.93;;;1.70;;
10343;SDS011;5217;43.960;10.954;2023-04-03T01:37:06;2.23;;;1.77;;
10343;SDS011;5217;43.960;10.954;2023-04-03T01:39:35;2.80;;;1.70;;
10343;SDS011;5217;43.960;10.954;2023-04-03T01:42:03;1.73;;;1.60;;
10343;SDS011;5217;43.960;10.954;2023-04-03T01:44:32;4.33;;;1.50;;
10343;SDS011;5217;43.960;10.954;2023-04-03T01:47:00;1.93;;;1.60;;
10343;SDS011;5217;43.960;10.954;2023-04-03T01:49:30;2.13;;;1.77;;
10343;SDS011;5217;43.960;10.954;2023-04-03T01:51:59;2.90;;;1.70;;
10343;SDS011;5217;43.960;10.954;2023-04-03T01:54:28;1.63;;;1.50;;
10343;SDS011;5217;43.960;10.954;2023-04-03T01:56:56;1.77;;;1.67;;
10343;SDS011;5217;43.960;10.954;2023-04-03T01:59:25;1.80;;;1.70;;
10343;SDS011;5217;43.960;10.954;2023-04-03T02:01:54;2.97;;;1.63;;
10343;SDS011;5217;43.960;10.954;2023-04-03T02:04:23;2.47;;;1.60;;
10343;SDS011;5217;43.960;10.954;2023-04-03T02:06:53;2.20;;;1.50;;
10343;SDS011;5217;43.960;10.954;2023-04-03T02:09:21;1.63;;;1.50;;
10343;SDS011;5217;43.960;10.954;2023-04-03T02:11:50;3.10;;;1.60;;
10343;SDS011;5217;43.960;10.954;2023-04-03T02:14:18;2.00;;;1.40;;
10343;SDS011;5217;43.960;10.954;2023-04-03T02:16:48;3.07;;;1.67;;
10343;SDS011;5217;43.960;10.954;2023-04-03T02:19:17;2.83;;;1.60;;
10343;SDS011;5217;43.960;10.954;2023-04-03T02:21:45;1.87;;;1.50;;
10343;SDS011;5217;43.960;10.954;2023-04-03T02:24:15;2.77;;;1.80;;
10343;SDS011;5217;43.960;10.954;2023-04-03T02:26:44;3.87;;;1.73;;
10343;SDS011;5217;43.960;10.954;2023-04-03T02:29:12;1.60;;;1.50;;
10343;SDS011;5217;43.960;10.954;2023-04-03T02:31:41;1.50;;;1.40;;
10343;SDS011;5217;43.960;10.954;2023-04-03T02:34:09;1.83;;;1.50;;
10343;SDS011;5217;43.960;10.954;2023-04-03T02:36:38;1.97;;;1.63;;
10343;SDS011;5217;43.960;10.954;2023-04-03T02:39:06;1.90;;;1.43;;
10343;SDS011;5217;43.960;10.954;2023-04-03T02:41:37;1.90;;;1.80;;
10343;SDS011;5217;43.960;10.954;2023-04-03T02:44:06;2.73;;;1.70;;
10343;SDS011;5217;43.960;10.954;2023-04-03T02:46:36;1.77;;;1.60;;
10343;SDS011;5217;43.960;10.954;2023-04-03T02:49:05;1.67;;;1.50;;
10343;SDS011;5217;43.960;10.954;2023-04-03T02:51:33;4.20;;;1.93;;
10343;SDS011;5217;43.960;10.954;2023-04-03T02:54:02;1.93;;;1.70;;
10343;SDS011;5217;43.960;10.954;2023-04-03T02:56:30;2.30;;;1.70;;
10343;SDS011;5217;43.960;10.954;2023-04-03T02:59:00;1.77;;;1.50;;
10343;SDS011;5217;43.960;10.954;2023-04-03T03:01:28;1.87;;;1.70;;
10343;SDS011;5217;43.960;10.954;2023-04-03T03:03:58;1.70;;;1.60;;
10343;SDS011;5217;43.960;10.954;2023-04-03T03:06:27;1.83;;;1.63;;
10343;SDS011;5217;43.960;10.954;2023-04-03T03:08:56;2.50;;;1.80;;
10343;SDS011;5217;43.960;10.954;2023-04-03T03:11:24;3.80;;;1.73;;
10343;SDS011;5217;43.960;10.954;2023-04-03T03:13:52;2.00;;;1.83;;
10343;SDS011;5217;43.960;10.954;2023-04-03T03:16:22;2.77;;;1.90;;
10343;SDS011;5217;43.960;10.954;2023-04-03T03:18:51;2.07;;;1.53;;
10343;SDS011;5217;43.960;10.954;2023-04-03T03:21:19;1.77;;;1.67;;
10343;SDS011;5217;43.960;10.954;2023-04-03T03:23:47;1.73;;;1.63;;
10343;SDS011;5217;43.960;10.954;2023-04-03T03:26:15;2.27;;;1.50;;
10343;SDS011;5217;43.960;10.954;2023-04-03T03:28:44;1.83;;;1.70;;
10343;SDS011;5217;43.960;10.954;2023-04-03T03:31:12;1.57;;;1.47;;
10343;SDS011;5217;43.960;10.954;2023-04-03T03:33:43;1.70;;;1.53;;
10343;SDS011;5217;43.960;10.954;2023-04-03T03:36:11;2.13;;;1.77;;
10343;SDS011;5217;43.960;10.954;2023-04-03T03:38:39;1.77;;;1.67;;
10343;SDS011;5217;43.960;10.954;2023-04-03T03:41:08;2.10;;;1.80;;
10343;SDS011;5217;43.960;10.954;2023-04-03T03:43:36;2.27;;;1.60;;
10343;SDS011;5217;43.960;10.954;2023-04-03T03:46:04;1.80;;;1.43;;
10343;SDS011;5217;43.960;10.954;2023-04-03T03:48:33;2.20;;;1.60;;
10343;SDS011;5217;43.960;10.954;2023-04-03T03:51:03;1.63;;;1.40;;
10343;SDS011;5217;43.960;10.954;2023-04-03T03:53:31;1.90;;;1.37;;
10343;SDS011;5217;43.960;10.954;2023-04-03T03:55:59;2.23;;;1.70;;
10343;SDS011;5217;43.960;10.954;2023-04-03T03:58:28;2.07;;;1.63;;
10343;SDS011;5217;43.960;10.954;2023-04-03T04:00:56;1.73;;;1.63;;
10343;SDS011;5217;43.960;10.954;2023-04-03T04:03:27;1.53;;;1.43;;
10343;SDS011;5217;43.960;10.954;2023-04-03T04:05:55;2.30;;;1.70;;
10343;SDS011;5217;43.960;10.954;2023-04-03T04:08:25;1.93;;;1.50;;
10343;SDS011;5217;43.960;10.954;2023-04-03T04:10:53;2.80;;;1.80;;
10343;SDS011;5217;43.960;10.954;2023-04-03T04:13:22;1.60;;;1.50;;
10343;SDS011;5217;43.960;10.954;2023-04-03T04:15:50;1.70;;;1.50;;
10343;SDS011;5217;43.960;10.954;2023-04-03T04:18:18;1.63;;;1.53;;
10343;SDS011;5217;43.960;10.954;2023-04-03T04:20:48;1.83;;;1.67;;
10343;SDS011;5217;43.960;10.954;2023-04-03T04:23:17;2.07;;;1.60;;
10343;SDS011;5217;43.960;10.954;2023-04-03T04:25:48;2.77;;;1.80;;
10343;SDS011;5217;43.960;10.954;2023-04-03T04:28:17;1.70;;;1.60;;
10343;SDS011;5217;43.960;10.954;2023-04-03T04:30:46;2.90;;;1.80;;
10343;SDS011;5217;43.960;10.954;2023-04-03T04:33:14;2.20;;;1.77;;
10343;SDS011;5217;43.960;10.954;2023-04-03T04:35:42;1.90;;;1.60;;
10343;SDS011;5217;43.960;10.954;2023-04-03T04:38:11;2.77;;;1.70;;
10343;SDS011;5217;43.960;10.954;2023-04-03T04:40:39;1.97;;;1.67;;
10343;SDS011;5217;43.960;10.954;2023-04-03T04:43:09;3.33;;;1.73;;
10343;SDS011;5217;43.960;10.954;2023-04-03T04:45:40;1.50;;;1.40;;
10343;SDS011;5217;43.960;10.954;2023-04-03T04:48:09;2.30;;;1.90;;
10343;SDS011;5217;43.960;10.954;2023-04-03T04:50:37;2.60;;;1.80;;
10343;SDS011;5217;43.960;10.954;2023-04-03T04:53:05;1.87;;;1.77;;
10343;SDS011;5217;43.960;10.954;2023-04-03T04:55:34;2.40;;;2.20;;
10343;SDS011;5217;43.960;10.954;2023-04-03T04:58:03;3.13;;;2.80;;
10343;SDS011;5217;43.960;10.954;2023-04-03T05:00:33;2.63;;;2.20;;
10343;SDS011;5217;43.960;10.954;2023-04-03T05:03:01;2.63;;;2.30;;
10343;SDS011;5217;43.960;10.954;2023-04-03T05:05:30;2.07;;;1.87;;
10343;SDS011;5217;43.960;10.954;2023-04-03T05:07:58;2.10;;;1.90;;
10343;SDS011;5217;43.960;10.954;2023-04-03T05:10:27;2.33;;;1.80;;
10343;SDS011;5217;43.960;10.954;2023-04-03T05:12:55;1.97;;;1.60;;
10343;SDS011;5217;43.960;10.954;2023-04-03T05:15:23;3.20;;;2.00;;
10343;SDS011;5217;43.960;10.954;2023-04-03T05:17:53;2.63;;;2.03;;
10343;SDS011;5217;43.960;10.954;2023-04-03T05:20:21;2.00;;;1.80;;
10343;SDS011;5217;43.960;10.954;2023-04-03T05:22:50;2.53;;;2.10;;
10343;SDS011;5217;43.960;10.954;2023-04-03T05:25:18;3.47;;;3.17;;
10343;SDS011;5217;43.960;10.954;2023-04-03T05:27:46;5.27;;;4.03;;
10343;SDS011;5217;43.960;10.954;2023-04-03T05:30:15;5.30;;;4.57;;
10343;SDS011;5217;43.960;10.954;2023-04-03T05:32:44;5.00;;;4.20;;
10343;SDS011;5217;43.960;10.954;2023-04-03T05:35:13;3.93;;;3.60;;
10343;SDS011;5217;43.960;10.954;2023-04-03T05:37:42;3.70;;;2.80;;
10343;SDS011;5217;43.960;10.954;2023-04-03T05:40:10;5.53;;;3.20;;
10343;SDS011;5217;43.960;10.954;2023-04-03T05:42:39;3.40;;;2.50;;
10343;SDS011;5217;43.960;10.954;2023-04-03T05:45:07;2.30;;;2.10;;
10343;SDS011;5217;43.960;10.954;2023-04-03T05:47:36;3.07;;;2.10;;
10343;SDS011;5217;43.960;10.954;2023-04-03T05:50:05;2.23;;;2.03;;
10343;SDS011;5217;43.960;10.954;2023-04-03T05:52:36;3.37;;;2.10;;
10343;SDS011;5217;43.960;10.954;2023-04-03T05:55:06;2.40;;;2.20;;
10343;SDS011;5217;43.960;10.954;2023-04-03T05:57:35;3.87;;;2.70;;
10343;SDS011;5217;43.960;10.954;2023-04-03T06:00:05;2.93;;;2.37;;
10343;SDS011;5217;43.960;10.954;2023-04-03T06:02:35;3.27;;;2.97;;
10343;SDS011;5217;43.960;10.954;2023-04-03T06:05:04;4.00;;;2.87;;
10343;SDS011;5217;43.960;10.954;2023-04-03T06:07:33;3.77;;;2.40;;
10343;SDS011;5217;43.960;10.954;2023-04-03T06:10:03;2.60;;;2.40;;
10343;SDS011;5217;43.960;10.954;2023-04-03T06:12:33;5.30;;;4.80;;
10343;SDS011;5217;43.960;10.954;2023-04-03T06:15:01;6.47;;;5.67;;
10343;SDS011;5217;43.960;10.954;2023-04-03T06:17:31;10.63;;;9.57;;
10343;SDS011;5217;43.960;10.954;2023-04-03T06:19:59;12.57;;;11.47;;
10343;SDS011;5217;43.960;10.954;2023-04-03T06:22:27;11.87;;;10.77;;
10343;SDS011;5217;43.960;10.954;2023-04-03T06:24:58;12.67;;;11.37;;
10343;SDS011;5217;43.960;10.954;2023-04-03T06:27:27;11.73;;;10.63;;
10343;SDS011;5217;43.960;10.954;2023-04-03T06:29:55;13.57;;;12.27;;
10343;SDS011;5217;43.960;10.954;2023-04-03T06:32:23;12.60;;;11.50;;
10343;SDS011;5217;43.960;10.954;2023-04-03T06:34:53;11.27;;;10.30;;
10343;SDS011;5217;43.960;10.954;2023-04-03T06:37:22;24.70;;;22.30;;
10343;SDS011;5217;43.960;10.954;2023-04-03T06:39:52;27.40;;;24.90;;
10343;SDS011;5217;43.960;10.954;2023-04-03T06:42:22;20.97;;;19.07;;
10343;SDS011;5217;43.960;10.954;2023-04-03T06:44:51;16.53;;;14.73;;
10343;SDS011;5217;43.960;10.954;2023-04-03T06:47:19;10.07;;;9.10;;
10343;SDS011;5217;43.960;10.954;2023-04-03T06:49:48;53.40;;;38.13;;
10343;SDS011;5217;43.960;10.954;2023-04-03T06:52:16;38.57;;;26.17;;
10343;SDS011;5217;43.960;10.954;2023-04-03T06:54:44;21.23;;;14.83;;
10343;SDS011;5217;43.960;10.954;2023-04-03T06:57:13;14.60;;;11.03;;
10343;SDS011;5217;43.960;10.954;2023-04-03T06:59:43;18.27;;;11.00;;
10343;SDS011;5217;43.960;10.954;2023-04-03T07:02:11;14.60;;;10.20;;
10343;SDS011;5217;43.960;10.954;2023-04-03T07:04:40;8.53;;;6.93;;
10343;SDS011;5217;43.960;10.954;2023-04-03T07:07:08;7.33;;;6.03;;
10343;SDS011;5217;43.960;10.954;2023-04-03T07:09:37;4.97;;;4.47;;
10343;SDS011;5217;43.960;10.954;2023-04-03T07:12:05;4.70;;;4.20;;
10343;SDS011;5217;43.960;10.954;2023-04-03T07:14:33;3.40;;;3.10;;
10343;SDS011;5217;43.960;10.954;2023-04-03T07:17:03;2.27;;;2.07;;
10343;SDS011;5217;43.960;10.954;2023-04-03T07:19:31;1.83;;;1.70;;
10343;SDS011;5217;43.960;10.954;2023-04-03T07:22:00;1.60;;;1.50;;
10343;SDS011;5217;43.960;10.954;2023-04-03T07:24:28;1.70;;;1.60;;
10343;SDS011;5217;43.960;10.954;2023-04-03T07:26:56;2.07;;;1.70;;
10343;SDS011;5217;43.960;10.954;2023-04-03T07:29:25;1.80;;;1.70;;
10343;SDS011;5217;43.960;10.954;2023-04-03T07:31:53;2.10;;;1.90;;
10343;SDS011;5217;43.960;10.954;2023-04-03T07:34:24;1.70;;;1.60;;
10343;SDS011;5217;43.960;10.954;2023-04-03T07:36:52;1.97;;;1.67;;
10343;SDS011;5217;43.960;10.954;2023-04-03T07:39:21;1.97;;;1.77;;
10343;SDS011;5217;43.960;10.954;2023-04-03T07:41:49;1.70;;;1.60;;
10343;SDS011;5217;43.960;10.954;2023-04-03T07:44:17;1.80;;;1.60;;
10343;SDS011;5217;43.960;10.954;2023-04-03T07:46:46;1.50;;;1.40;;
10343;SDS011;5217;43.960;10.954;2023-04-03T07:49:14;1.60;;;1.50;;
10343;SDS011;5217;43.960;10.954;2023-04-03T07:51:45;1.43;;;1.33;;
10343;SDS011;5217;43.960;10.954;2023-04-03T07:54:14;1.43;;;1.33;;
10343;SDS011;5217;43.960;10.954;2023-04-03T07:56:43;1.33;;;1.23;;
10343;SDS011;5217;43.960;10.954;2023-04-03T07:59:11;1.70;;;1.50;;
10343;SDS011;5217;43.960;10.954;2023-04-03T08:01:39;2.00;;;1.27;;
10343;SDS011;5217;43.960;10.954;2023-04-03T08:04:09;1.60;;;1.40;;
10343;SDS011;5217;43.960;10.954;2023-04-03T08:06:37;1.40;;;1.30;;
10343;SDS011;5217;43.960;10.954;2023-04-03T08:09:13;1.60;;;1.47;;
10343;SDS011;5217;43.960;10.954;2023-04-03T08:11:42;1.40;;;1.30;;
10343;SDS011;5217;43.960;10.954;2023-04-03T08:14:11;1.60;;;1.50;;
10343;SDS011;5217;43.960;10.954;2023-04-03T08:16:43;1.57;;;1.37;;
10343;SDS011;5217;43.960;10.954;2023-04-03T08:19:12;1.30;;;1.20;;
10343;SDS011;5217;43.960;10.954;2023-04-03T08:21:52;1.90;;;1.80;;
10343;SDS011;5217;43.960;10.954;2023-04-03T08:24:22;1.87;;;1.77;;
10343;SDS011;5217;43.960;10.954;2023-04-03T08:26:51;2.03;;;1.83;;
10343;SDS011;5217;43.960;10.954;2023-04-03T08:29:20;2.40;;;1.37;;
10343;SDS011;5217;43.960;10.954;2023-04-03T08:31:48;2.07;;;1.70;;
10343;SDS011;5217;43.960;10.954;2023-04-03T08:34:17;1.80;;;1.70;;
10343;SDS011;5217;43.960;10.954;2023-04-03T08:36:46;1.90;;;1.60;;
10343;SDS011;5217;43.960;10.954;2023-04-03T08:39:15;1.50;;;1.40;;
10343;SDS011;5217;43.960;10.954;2023-04-03T08:41:46;2.30;;;1.33;;
10343;SDS011;5217;43.960;10.954;2023-04-03T08:44:17;1.67;;;1.50;;
10343;SDS011;5217;43.960;10.954;2023-04-03T08:46:56;1.97;;;1.50;;
10343;SDS011;5217;43.960;10.954;2023-04-03T08:49:37;2.57;;;1.40;;
10343;SDS011;5217;43.960;10.954;2023-04-03T08:52:14;1.63;;;1.40;;
10343;SDS011;5217;43.960;10.954;2023-04-03T08:54:48;2.40;;;1.70;;
10343;SDS011;5217;43.960;10.954;2023-04-03T08:57:23;2.00;;;1.63;;
10343;SDS011;5217;43.960;10.954;2023-04-03T08:59:57;1.63;;;1.37;;
10343;SDS011;5217;43.960;10.954;2023-04-03T09:02:30;1.57;;;1.30;;
10343;SDS011;5217;43.960;10.954;2023-04-03T09:05:01;1.50;;;1.40;;
10343;SDS011;5217;43.960;10.954;2023-04-03T09:07:39;1.63;;;1.47;;
10343;SDS011;5217;43.960;10.954;2023-04-03T09:10:15;1.60;;;1.40;;
10343;SDS011;5217;43.960;10.954;2023-04-03T09:12:53;1.70;;;1.57;;
10343;SDS011;5217;43.960;10.954;2023-04-03T09:15:28;1.30;;;1.20;;
10343;SDS011;5217;43.960;10.954;2023-04-03T09:18:05;1.50;;;1.40;;
10343;SDS011;5217;43.960;10.954;2023-04-03T09:20:43;1.40;;;1.30;;
10343;SDS011;5217;43.960;10.954;2023-04-03T09:23:21;1.90;;;1.70;;
10343;SDS011;5217;43.960;10.954;2023-04-03T09:25:56;1.57;;;1.40;;
10343;SDS011;5217;43.960;10.954;2023-04-03T09:28:31;2.37;;;1.53;;
10343;SDS011;5217;43.960;10.954;2023-04-03T09:31:16;2.90;;;1.70;;
10343;SDS011;5217;43.960;10.954;2023-04-03T09:33:47;2.03;;;1.70;;
10343;SDS011;5217;43.960;10.954;2023-04-03T09:36:37;1.80;;;1.70;;
10343;SDS011;5217;43.960;10.954;2023-04-03T09:39:10;1.50;;;1.40;;
10343;SDS011;5217;43.960;10.954;2023-04-03T09:41:41;1.57;;;1.47;;
10343;SDS011;5217;43.960;10.954;2023-04-03T09:44:24;1.93;;;1.73;;
10343;SDS011;5217;43.960;10.954;2023-04-03T09:46:54;2.13;;;1.93;;
10343;SDS011;5217;43.960;10.954;2023-04-03T09:49:22;2.40;;;2.20;;
10343;SDS011;5217;43.960;10.954;2023-04-03T09:51:51;2.95;;;2.33;;
10343;SDS011;5217;43.960;10.954;2023-04-03T09:57:10;2.03;;;1.83;;
10343;SDS011;5217;43.960;10.954;2023-04-03T09:59:43;1.90;;;1.80;;
10343;SDS011;5217;43.960;10.954;2023-04-03T10:02:22;1.60;;;1.50;;
10343;SDS011;5217;43.960;10.954;2023-04-03T10:04:58;1.57;;;1.47;;
10343;SDS011;5217;43.960;10.954;2023-04-03T10:07:35;1.30;;;1.20;;
10343;SDS011;5217;43.960;10.954;2023-04-03T10:10:19;1.30;;;1.20;;
10343;SDS011;5217;43.960;10.954;2023-04-03T10:13:00;2.40;;;1.30;;
10343;SDS011;5217;43.960;10.954;2023-04-03T10:15:36;1.63;;;1.43;;
10343;SDS011;5217;43.960;10.954;2023-04-03T10:18:14;1.73;;;1.63;;
10343;SDS011;5217;43.960;10.954;2023-04-03T10:20:57;2.53;;;2.20;;
10343;SDS011;5217;43.960;10.954;2023-04-03T10:23:44;2.45;;;2.25;;
10343;SDS011;5217;43.960;10.954;2023-04-03T10:26:22;2.10;;;1.90;;
10343;SDS011;5217;43.960;10.954;2023-04-03T10:29:00;1.38;;;1.27;;
10343;SDS011;5217;43.960;10.954;2023-04-03T10:31:37;1.50;;;1.40;;
10343;SDS011;5217;43.960;10.954;2023-04-03T10:34:14;1.65;;;1.40;;
10343;SDS011;5217;43.960;10.954;2023-04-03T10:36:49;1.42;;;1.33;;
10343;SDS011;5217;43.960;10.954;2023-04-03T10:39:24;1.67;;;1.58;;
10343;SDS011;5217;43.960;10.954;2023-04-03T10:42:00;1.45;;;1.35;;
10343;SDS011;5217;43.960;10.954;2023-04-03T10:44:49;2.65;;;1.40;;
10343;SDS011;5217;43.960;10.954;2023-04-03T10:47:27;1.40;;;1.30;;
10343;SDS011;5217;43.960;10.954;2023-04-03T10:50:06;1.40;;;1.30;;
10343;SDS011;5217;43.960;10.954;2023-04-03T10:52:50;1.65;;;1.30;;
10343;SDS011;5217;43.960;10.954;2023-04-03T10:55:24;2.00;;;1.15;;
10343;SDS011;5217;43.960;10.954;2023-04-03T10:58:00;1.45;;;1.35;;
10343;SDS011;5217;43.960;10.954;2023-04-03T11:00:33;1.88;;;1.40;;
10343;SDS011;5217;43.960;10.954;2023-04-03T11:03:08;1.70;;;1.60;;
10343;SDS011;5217;43.960;10.954;2023-04-03T11:05:42;1.65;;;1.38;;
10343;SDS011;5217;43.960;10.954;2023-04-03T11:08:15;1.38;;;1.20;;
10343;SDS011;5217;43.960;10.954;2023-04-03T11:10:53;1.45;;;1.27;;
10343;SDS011;5217;43.960;10.954;2023-04-03T11:13:26;1.50;;;1.30;;
10343;SDS011;5217;43.960;10.954;2023-04-03T11:16:00;1.70;;;1.60;;
10343;SDS011;5217;43.960;10.954;2023-04-03T11:18:32;2.63;;;1.50;;
10343;SDS011;5217;43.960;10.954;2023-04-03T11:21:07;2.15;;;1.63;;
10343;SDS011;5217;43.960;10.954;2023-04-03T11:23:40;1.92;;;1.48;;
10343;SDS011;5217;43.960;10.954;2023-04-03T11:26:16;1.67;;;1.58;;
10343;SDS011;5217;43.960;10.954;2023-04-03T11:28:51;1.40;;;1.25;;
10343;SDS011;5217;43.960;10.954;2023-04-03T11:31:25;1.95;;;1.35;;
10343;SDS011;5217;43.960;10.954;2023-04-03T11:34:06;1.55;;;1.40;;
10343;SDS011;5217;43.960;10.954;2023-04-03T11:36:44;1.65;;;1.30;;
10343;SDS011;5217;43.960;10.954;2023-04-03T11:39:18;1.63;;;1.20;;
10343;SDS011;5217;43.960;10.954;2023-04-03T11:41:50;1.63;;;1.40;;
10343;SDS011;5217;43.960;10.954;2023-04-03T11:44:36;2.17;;;1.45;;
10343;SDS011;5217;43.960;10.954;2023-04-03T11:47:06;4.20;;;2.30;;
10343;SDS011;5217;43.960;10.954;2023-04-03T11:49:56;3.15;;;2.30;;
10343;SDS011;5217;43.960;10.954;2023-04-03T11:55:41;1.92;;;1.40;;
10343;SDS011;5217;43.960;10.954;2023-04-03T11:58:20;1.80;;;1.40;;
10343;SDS011;5217;43.960;10.954;2023-04-03T12:01:00;2.20;;;1.30;;
10343;SDS011;5217;43.960;10.954;2023-04-03T12:03:55;1.30;;;1.17;;
10343;SDS011;5217;43.960;10.954;2023-04-03T12:12:57;1.80;;;1.20;;
10343;SDS011;5217;43.960;10.954;2023-04-03T12:24:34;2.10;;;1.20;;
10343;SDS011;5217;43.960;10.954;2023-04-03T12:27:28;1.33;;;1.10;;
10343;SDS011;5217;43.960;10.954;2023-04-03T12:30:06;1.45;;;1.05;;
10343;SDS011;5217;43.960;10.954;2023-04-03T12:32:45;1.23;;;1.00;;
10343;SDS011;5217;43.960;10.954;2023-04-03T12:35:39;3.05;;;1.00;;
10343;SDS011;5217;43.960;10.954;2023-04-03T12:38:25;1.15;;;1.00;;
10343;SDS011;5217;43.960;10.954;2023-04-03T12:44:13;1.58;;;0.90;;
10343;SDS011;5217;43.960;10.954;2023-04-03T12:46:52;1.77;;;1.20;;
10343;SDS011;5217;43.960;10.954;2023-04-03T12:49:35;1.58;;;1.20;;
10343;SDS011;5217;43.960;10.954;2023-04-03T12:52:12;0.90;;;0.90;;
10343;SDS011;5217;43.960;10.954;2023-04-03T12:54:47;1.63;;;1.40;;
10343;SDS011;5217;43.960;10.954;2023-04-03T12:57:17;2.30;;;2.10;;
10343;SDS011;5217;43.960;10.954;2023-04-03T12:59:48;2.00;;;1.80;;
10343;SDS011;5217;43.960;10.954;2023-04-03T13:02:22;1.60;;;1.50;;
10343;SDS011;5217;43.960;10.954;2023-04-03T13:04:53;1.10;;;1.00;;
10343;SDS011;5217;43.960;10.954;2023-04-03T13:07:27;1.33;;;0.98;;
10343;SDS011;5217;43.960;10.954;2023-04-03T13:10:09;0.90;;;0.90;;
10343;SDS011;5217;43.960;10.954;2023-04-03T13:12:46;1.73;;;1.00;;
10343;SDS011;5217;43.960;10.954;2023-04-03T13:15:18;1.15;;;0.90;;
10343;SDS011;5217;43.960;10.954;2023-04-03T13:17:49;1.90;;;1.00;;
10343;SDS011;5217;43.960;10.954;2023-04-03T13:20:22;1.02;;;0.90;;
10343;SDS011;5217;43.960;10.954;2023-04-03T13:22:54;1.83;;;1.10;;
10343;SDS011;5217;43.960;10.954;2023-04-03T13:25:26;1.02;;;0.90;;
10343;SDS011;5217;43.960;10.954;2023-04-03T13:27:57;1.15;;;0.93;;
10343;SDS011;5217;43.960;10.954;2023-04-03T13:30:41;1.83;;;1.00;;
10343;SDS011;5217;43.960;10.954;2023-04-03T13:33:22;2.35;;;1.40;;
10343;SDS011;5217;43.960;10.954;2023-04-03T13:35:56;1.08;;;0.80;;
10343;SDS011;5217;43.960;10.954;2023-04-03T13:38:29;1.73;;;1.02;;
10343;SDS011;5217;43.960;10.954;2023-04-03T13:41:01;0.80;;;0.80;;
10343;SDS011;5217;43.960;10.954;2023-04-03T13:43:32;1.50;;;1.00;;
10343;SDS011;5217;43.960;10.954;2023-04-03T13:46:05;1.00;;;0.85;;
10343;SDS011;5217;43.960;10.954;2023-04-03T13:48:51;1.05;;;0.93;;
10343;SDS011;5217;43.960;10.954;2023-04-03T13:51:21;1.90;;;1.10;;
10343;SDS011;5217;43.960;10.954;2023-04-03T13:53:53;0.90;;;0.85;;
10343;SDS011;5217;43.960;10.954;2023-04-03T13:56:26;1.48;;;1.00;;
10343;SDS011;5217;43.960;10.954;2023-04-03T13:58:59;1.65;;;1.00;;
10343;SDS011;5217;43.960;10.954;2023-04-03T14:01:39;1.50;;;0.80;;
10343;SDS011;5217;43.960;10.954;2023-04-03T14:04:12;1.02;;;0.85;;
10343;SDS011;5217;43.960;10.954;2023-04-03T14:06:43;1.10;;;0.90;;
10343;SDS011;5217;43.960;10.954;2023-04-03T14:09:12;1.48;;;0.95;;
10343;SDS011;5217;43.960;10.954;2023-04-03T14:11:42;1.33;;;1.10;;
10343;SDS011;5217;43.960;10.954;2023-04-03T14:14:12;2.00;;;1.00;;
10343;SDS011;5217;43.960;10.954;2023-04-03T14:16:46;0.95;;;0.80;;
10343;SDS011;5217;43.960;10.954;2023-04-03T14:19:17;1.27;;;1.00;;
10343;SDS011;5217;43.960;10.954;2023-04-03T14:21:48;3.03;;;0.98;;
10343;SDS011;5217;43.960;10.954;2023-04-03T14:24:18;3.45;;;1.00;;
10343;SDS011;5217;43.960;10.954;2023-04-03T14:26:48;1.33;;;0.85;;
10343;SDS011;5217;43.960;10.954;2023-04-03T14:29:19;1.52;;;0.93;;
10343;SDS011;5217;43.960;10.954;2023-04-03T14:31:49;1.25;;;0.95;;
10343;SDS011;5217;43.960;10.954;2023-04-03T14:34:33;0.90;;;0.90;;
10343;SDS011;5217;43.960;10.954;2023-04-03T14:37:01;1.90;;;0.77;;
10343;SDS011;5217;43.960;10.954;2023-04-03T14:39:29;2.05;;;1.30;;
10343;SDS011;5217;43.960;10.954;2023-04-03T14:41:58;2.05;;;0.95;;
10343;SDS011;5217;43.960;10.954;2023-04-03T14:44:26;0.75;;;0.75;;
10343;SDS011;5217;43.960;10.954;2023-04-03T14:46:56;1.08;;;0.90;;
10343;SDS011;5217;43.960;10.954;2023-04-03T14:49:26;1.25;;;1.00;;
10343;SDS011;5217;43.960;10.954;2023-04-03T14:51:56;0.60;;;0.60;;
10343;SDS011;5217;43.960;10.954;2023-04-03T14:54:24;1.20;;;0.90;;
10343;SDS011;5217;43.960;10.954;2023-04-03T14:56:55;1.13;;;0.70;;
10343;SDS011;5217;43.960;10.954;2023-04-03T14:59:24;1.75;;;0.90;;
10343;SDS011;5217;43.960;10.954;2023-04-03T15:01:53;1.60;;;1.00;;
10343;SDS011;5217;43.960;10.954;2023-04-03T15:04:23;1.40;;;1.30;;
10343;SDS011;5217;43.960;10.954;2023-04-03T15:06:51;1.30;;;1.20;;
10343;SDS011;5217;43.960;10.954;2023-04-03T15:09:21;1.20;;;1.10;;
10343;SDS011;5217;43.960;10.954;2023-04-03T15:11:51;0.90;;;0.90;;
10343;SDS011;5217;43.960;10.954;2023-04-03T15:14:21;1.30;;;1.20;;
10343;SDS011;5217;43.960;10.954;2023-04-03T15:17:02;1.02;;;1.00;;
10343;SDS011;5217;43.960;10.954;2023-04-03T15:19:33;1.60;;;1.10;;
10343;SDS011;5217;43.960;10.954;2023-04-03T15:22:04;1.20;;;1.05;;
10343;SDS011;5217;43.960;10.954;2023-04-03T15:24:33;1.20;;;1.10;;
10343;SDS011;5217;43.960;10.954;2023-04-03T15:27:01;3.20;;;1.00;;
10343;SDS011;5217;43.960;10.954;2023-04-03T15:29:29;1.35;;;1.13;;
10343;SDS011;5217;43.960;10.954;2023-04-03T15:31:58;1.63;;;1.13;;
10343;SDS011;5217;43.960;10.954;2023-04-03T15:34:27;1.90;;;1.27;;
10343;SDS011;5217;43.960;10.954;2023-04-03T15:36:58;2.40;;;1.27;;